sensor_id;sensor_type;location;lat;lon;timestamp;P1;durP1;ratioP1;P2;durP2;ratioP2
70247;SDS011;57641;51.416;5.506;2022-11-11T00:00:15;11.75;;;5.15;;
70247;SDS011;57641;51.416;5.506;2022-11-11T00:02:42;14.00;;;5.25;;
70247;SDS011;57641;51.416;5.506;2022-11-11T00:05:08;16.15;;;5.13;;
70247;SDS011;57641;51.416;5.506;2022-11-11T00:07:34;11.55;;;6.00;;
70247;SDS011;57641;51.416;5.506;2022-11-11T00:10:00;12.20;;;6.13;;
70247;SDS011;57641;51.416;5.506;2022-11-11T00:12:26;14.05;;;5.78;;
70247;SDS011;57641;51.416;5.506;2022-11-11T00:14:52;14.32;;;6.10;;
70247;SDS011;57641;51.416;5.506;2022-11-11T00:17:18;11.93;;;6.35;;
70247;SDS011;57641;51.416;5.506;2022-11-11T00:20:02;15.80;;;5.40;;
70247;SDS011;57641;51.416;5.506;2022-11-11T00:22:48;12.40;;;5.53;;
70247;SDS011;57641;51.416;5.506;2022-11-11T00:25:32;15.07;;;6.05;;
70247;SDS011;57641;51.416;5.506;2022-11-11T00:27:58;11.90;;;5.60;;
70247;SDS011;57641;51.416;5.506;2022-11-11T00:30:24;15.70;;;7.05;;
70247;SDS011;57641;51.416;5.506;2022-11-11T00:32:50;16.27;;;5.93;;
70247;SDS011;57641;51.416;5.506;2022-11-11T00:35:16;16.70;;;6.40;;
70247;SDS011;57641;51.416;5.506;2022-11-11T00:38:11;15.43;;;7.18;;
70247;SDS011;57641;51.416;5.506;2022-11-11T00:41:14;14.02;;;7.25;;
70247;SDS011;57641;51.416;5.506;2022-11-11T00:43:41;14.98;;;7.07;;
70247;SDS011;57641;51.416;5.506;2022-11-11T00:46:07;12.95;;;7.18;;
70247;SDS011;57641;51.416;5.506;2022-11-11T00:48:52;14.05;;;6.95;;
70247;SDS011;57641;51.416;5.506;2022-11-11T00:51:36;11.93;;;6.97;;
70247;SDS011;57641;51.416;5.506;2022-11-11T00:54:02;12.63;;;7.13;;
70247;SDS011;57641;51.416;5.506;2022-11-11T00:56:28;12.13;;;7.13;;
70247;SDS011;57641;51.416;5.506;2022-11-11T00:58:54;12.65;;;7.57;;
70247;SDS011;57641;51.416;5.506;2022-11-11T01:01:20;14.77;;;7.97;;
70247;SDS011;57641;51.416;5.506;2022-11-11T01:03:46;14.82;;;7.55;;
70247;SDS011;57641;51.416;5.506;2022-11-11T01:06:13;16.38;;;8.55;;
70247;SDS011;57641;51.416;5.506;2022-11-11T01:08:39;14.88;;;8.27;;
70247;SDS011;57641;51.416;5.506;2022-11-11T01:11:13;18.05;;;8.38;;
70247;SDS011;57641;51.416;5.506;2022-11-11T01:13:40;13.88;;;7.70;;
70247;SDS011;57641;51.416;5.506;2022-11-11T01:16:07;15.32;;;8.65;;
70247;SDS011;57641;51.416;5.506;2022-11-11T01:18:33;13.57;;;7.28;;
70247;SDS011;57641;51.416;5.506;2022-11-11T01:21:00;16.17;;;8.90;;
70247;SDS011;57641;51.416;5.506;2022-11-11T01:23:27;14.05;;;7.95;;
70247;SDS011;57641;51.416;5.506;2022-11-11T01:25:53;16.45;;;8.00;;
70247;SDS011;57641;51.416;5.506;2022-11-11T01:28:19;14.05;;;8.43;;
70247;SDS011;57641;51.416;5.506;2022-11-11T01:30:45;16.60;;;8.63;;
70247;SDS011;57641;51.416;5.506;2022-11-11T01:33:11;19.05;;;8.98;;
70247;SDS011;57641;51.416;5.506;2022-11-11T01:35:38;19.20;;;8.88;;
70247;SDS011;57641;51.416;5.506;2022-11-11T01:38:04;14.88;;;8.02;;
70247;SDS011;57641;51.416;5.506;2022-11-11T01:40:38;16.00;;;8.82;;
70247;SDS011;57641;51.416;5.506;2022-11-11T01:48:21;15.02;;;8.50;;
70247;SDS011;57641;51.416;5.506;2022-11-11T01:51:09;15.60;;;8.05;;
70247;SDS011;57641;51.416;5.506;2022-11-11T01:53:37;15.85;;;8.57;;
70247;SDS011;57641;51.416;5.506;2022-11-11T01:56:03;15.02;;;7.60;;
70247;SDS011;57641;51.416;5.506;2022-11-11T01:58:29;16.15;;;8.25;;
70247;SDS011;57641;51.416;5.506;2022-11-11T02:00:56;14.90;;;8.25;;
70247;SDS011;57641;51.416;5.506;2022-11-11T02:03:23;16.75;;;8.70;;
70247;SDS011;57641;51.416;5.506;2022-11-11T02:05:50;16.52;;;7.95;;
70247;SDS011;57641;51.416;5.506;2022-11-11T02:11:01;14.70;;;8.25;;
70247;SDS011;57641;51.416;5.506;2022-11-11T02:13:29;13.75;;;8.32;;
70247;SDS011;57641;51.416;5.506;2022-11-11T02:16:14;17.02;;;7.82;;
70247;SDS011;57641;51.416;5.506;2022-11-11T02:18:41;13.38;;;7.63;;
70247;SDS011;57641;51.416;5.506;2022-11-11T02:21:09;17.27;;;8.48;;
70247;SDS011;57641;51.416;5.506;2022-11-11T02:26:07;16.58;;;8.05;;
70247;SDS011;57641;51.416;5.506;2022-11-11T02:28:34;16.67;;;8.88;;
70247;SDS011;57641;51.416;5.506;2022-11-11T02:31:01;16.30;;;8.60;;
70247;SDS011;57641;51.416;5.506;2022-11-11T02:33:28;16.05;;;8.27;;
70247;SDS011;57641;51.416;5.506;2022-11-11T02:35:54;17.10;;;8.00;;
70247;SDS011;57641;51.416;5.506;2022-11-11T02:38:22;13.50;;;7.60;;
70247;SDS011;57641;51.416;5.506;2022-11-11T02:40:49;15.38;;;8.35;;
70247;SDS011;57641;51.416;5.506;2022-11-11T02:43:33;15.95;;;7.80;;
70247;SDS011;57641;51.416;5.506;2022-11-11T02:46:00;16.98;;;8.15;;
70247;SDS011;57641;51.416;5.506;2022-11-11T02:48:27;17.88;;;8.88;;
70247;SDS011;57641;51.416;5.506;2022-11-11T02:50:53;14.73;;;8.80;;
70247;SDS011;57641;51.416;5.506;2022-11-11T02:53:20;14.00;;;7.78;;
70247;SDS011;57641;51.416;5.506;2022-11-11T02:55:46;15.73;;;8.35;;
70247;SDS011;57641;51.416;5.506;2022-11-11T02:58:12;16.13;;;7.90;;
70247;SDS011;57641;51.416;5.506;2022-11-11T03:00:38;16.30;;;8.40;;
70247;SDS011;57641;51.416;5.506;2022-11-11T03:03:06;17.92;;;8.35;;
70247;SDS011;57641;51.416;5.506;2022-11-11T03:05:32;17.52;;;8.63;;
70247;SDS011;57641;51.416;5.506;2022-11-11T03:07:58;17.55;;;8.70;;
70247;SDS011;57641;51.416;5.506;2022-11-11T03:10:24;18.33;;;8.63;;
70247;SDS011;57641;51.416;5.506;2022-11-11T03:12:50;20.02;;;9.52;;
70247;SDS011;57641;51.416;5.506;2022-11-11T03:15:16;20.33;;;9.63;;
70247;SDS011;57641;51.416;5.506;2022-11-11T03:17:42;23.88;;;11.25;;
70247;SDS011;57641;51.416;5.506;2022-11-11T03:20:09;22.75;;;11.02;;
70247;SDS011;57641;51.416;5.506;2022-11-11T03:23:13;25.67;;;12.60;;
70247;SDS011;57641;51.416;5.506;2022-11-11T03:25:46;25.30;;;10.43;;
70247;SDS011;57641;51.416;5.506;2022-11-11T03:28:14;20.58;;;11.23;;
70247;SDS011;57641;51.416;5.506;2022-11-11T03:30:44;25.42;;;12.05;;
70247;SDS011;57641;51.416;5.506;2022-11-11T03:33:11;22.92;;;11.95;;
70247;SDS011;57641;51.416;5.506;2022-11-11T03:35:37;26.08;;;12.20;;
70247;SDS011;57641;51.416;5.506;2022-11-11T03:38:04;25.45;;;11.18;;
70247;SDS011;57641;51.416;5.506;2022-11-11T03:43:05;22.88;;;11.07;;
70247;SDS011;57641;51.416;5.506;2022-11-11T03:45:31;23.75;;;11.05;;
70247;SDS011;57641;51.416;5.506;2022-11-11T03:47:58;19.67;;;9.98;;
70247;SDS011;57641;51.416;5.506;2022-11-11T03:50:24;19.63;;;9.13;;
70247;SDS011;57641;51.416;5.506;2022-11-11T03:52:50;16.30;;;7.65;;
70247;SDS011;57641;51.416;5.506;2022-11-11T03:55:16;14.27;;;7.82;;
70247;SDS011;57641;51.416;5.506;2022-11-11T03:57:42;15.10;;;8.20;;
70247;SDS011;57641;51.416;5.506;2022-11-11T04:00:10;17.27;;;8.15;;
70247;SDS011;57641;51.416;5.506;2022-11-11T04:02:36;17.13;;;8.77;;
70247;SDS011;57641;51.416;5.506;2022-11-11T04:05:21;17.95;;;8.85;;
70247;SDS011;57641;51.416;5.506;2022-11-11T04:08:10;17.85;;;9.23;;
70247;SDS011;57641;51.416;5.506;2022-11-11T04:10:56;17.98;;;8.75;;
70247;SDS011;57641;51.416;5.506;2022-11-11T04:13:22;16.50;;;8.30;;
70247;SDS011;57641;51.416;5.506;2022-11-11T04:16:08;18.20;;;8.93;;
70247;SDS011;57641;51.416;5.506;2022-11-11T04:18:34;16.63;;;8.73;;
70247;SDS011;57641;51.416;5.506;2022-11-11T04:21:20;21.73;;;9.80;;
70247;SDS011;57641;51.416;5.506;2022-11-11T04:24:05;20.27;;;9.48;;
70247;SDS011;57641;51.416;5.506;2022-11-11T04:26:50;22.08;;;9.90;;
70247;SDS011;57641;51.416;5.506;2022-11-11T04:29:18;25.15;;;12.00;;
70247;SDS011;57641;51.416;5.506;2022-11-11T04:32:03;27.00;;;13.18;;
70247;SDS011;57641;51.416;5.506;2022-11-11T04:34:49;20.90;;;10.43;;
70247;SDS011;57641;51.416;5.506;2022-11-11T04:37:16;28.38;;;12.50;;
70247;SDS011;57641;51.416;5.506;2022-11-11T04:39:43;26.23;;;11.88;;
70247;SDS011;57641;51.416;5.506;2022-11-11T04:42:28;23.77;;;10.88;;
70247;SDS011;57641;51.416;5.506;2022-11-11T04:44:55;29.48;;;12.10;;
70247;SDS011;57641;51.416;5.506;2022-11-11T04:47:53;24.50;;;10.50;;
70247;SDS011;57641;51.416;5.506;2022-11-11T04:50:19;25.13;;;11.05;;
70247;SDS011;57641;51.416;5.506;2022-11-11T04:52:45;23.63;;;10.80;;
70247;SDS011;57641;51.416;5.506;2022-11-11T04:55:11;30.00;;;10.85;;
70247;SDS011;57641;51.416;5.506;2022-11-11T04:57:57;24.67;;;10.23;;
70247;SDS011;57641;51.416;5.506;2022-11-11T05:00:23;22.35;;;10.05;;
70247;SDS011;57641;51.416;5.506;2022-11-11T05:02:52;23.48;;;9.82;;
70247;SDS011;57641;51.416;5.506;2022-11-11T05:05:36;20.17;;;10.32;;
70247;SDS011;57641;51.416;5.506;2022-11-11T05:08:21;23.88;;;10.57;;
70247;SDS011;57641;51.416;5.506;2022-11-11T05:11:06;21.88;;;9.77;;
70247;SDS011;57641;51.416;5.506;2022-11-11T05:13:32;24.95;;;10.27;;
70247;SDS011;57641;51.416;5.506;2022-11-11T05:16:19;20.00;;;9.45;;
70247;SDS011;57641;51.416;5.506;2022-11-11T05:19:05;20.55;;;10.68;;
70247;SDS011;57641;51.416;5.506;2022-11-11T05:21:50;26.83;;;10.93;;
70247;SDS011;57641;51.416;5.506;2022-11-11T05:24:18;21.50;;;9.45;;
70247;SDS011;57641;51.416;5.506;2022-11-11T05:27:02;26.67;;;10.57;;
70247;SDS011;57641;51.416;5.506;2022-11-11T05:29:28;20.50;;;9.32;;
70247;SDS011;57641;51.416;5.506;2022-11-11T05:31:54;21.88;;;10.02;;
70247;SDS011;57641;51.416;5.506;2022-11-11T05:34:21;19.90;;;9.75;;
70247;SDS011;57641;51.416;5.506;2022-11-11T05:36:47;19.92;;;8.90;;
70247;SDS011;57641;51.416;5.506;2022-11-11T05:39:13;21.10;;;9.52;;
70247;SDS011;57641;51.416;5.506;2022-11-11T05:41:39;22.00;;;8.70;;
70247;SDS011;57641;51.416;5.506;2022-11-11T05:44:05;20.67;;;8.80;;
70247;SDS011;57641;51.416;5.506;2022-11-11T05:46:31;18.48;;;8.95;;
70247;SDS011;57641;51.416;5.506;2022-11-11T05:48:57;20.13;;;8.20;;
70247;SDS011;57641;51.416;5.506;2022-11-11T05:51:42;17.15;;;8.95;;
70247;SDS011;57641;51.416;5.506;2022-11-11T05:54:08;21.33;;;10.85;;
70247;SDS011;57641;51.416;5.506;2022-11-11T05:56:34;22.92;;;10.25;;
70247;SDS011;57641;51.416;5.506;2022-11-11T05:59:00;20.90;;;10.25;;
70247;SDS011;57641;51.416;5.506;2022-11-11T06:01:26;19.08;;;8.82;;
70247;SDS011;57641;51.416;5.506;2022-11-11T06:03:52;19.52;;;9.32;;
70247;SDS011;57641;51.416;5.506;2022-11-11T06:06:18;18.85;;;8.48;;
70247;SDS011;57641;51.416;5.506;2022-11-11T06:08:44;21.52;;;8.68;;
70247;SDS011;57641;51.416;5.506;2022-11-11T06:11:10;19.00;;;7.90;;
70247;SDS011;57641;51.416;5.506;2022-11-11T06:13:36;19.85;;;8.10;;
70247;SDS011;57641;51.416;5.506;2022-11-11T06:16:02;19.88;;;8.45;;
70247;SDS011;57641;51.416;5.506;2022-11-11T06:18:28;17.52;;;8.73;;
70247;SDS011;57641;51.416;5.506;2022-11-11T06:20:55;18.58;;;8.15;;
70247;SDS011;57641;51.416;5.506;2022-11-11T06:23:22;15.65;;;7.05;;
70247;SDS011;57641;51.416;5.506;2022-11-11T06:25:48;16.10;;;8.65;;
70247;SDS011;57641;51.416;5.506;2022-11-11T06:28:33;20.65;;;8.13;;
70247;SDS011;57641;51.416;5.506;2022-11-11T06:31:00;20.88;;;8.18;;
70247;SDS011;57641;51.416;5.506;2022-11-11T06:33:26;19.92;;;7.97;;
70247;SDS011;57641;51.416;5.506;2022-11-11T06:35:53;26.30;;;9.15;;
70247;SDS011;57641;51.416;5.506;2022-11-11T06:38:19;19.52;;;8.52;;
70247;SDS011;57641;51.416;5.506;2022-11-11T06:40:46;24.55;;;8.00;;
70247;SDS011;57641;51.416;5.506;2022-11-11T06:43:12;15.52;;;7.43;;
70247;SDS011;57641;51.416;5.506;2022-11-11T06:45:38;15.20;;;7.05;;
70247;SDS011;57641;51.416;5.506;2022-11-11T06:48:04;16.65;;;6.93;;
70247;SDS011;57641;51.416;5.506;2022-11-11T06:50:31;18.02;;;7.13;;
70247;SDS011;57641;51.416;5.506;2022-11-11T06:53:07;11.43;;;6.50;;
70247;SDS011;57641;51.416;5.506;2022-11-11T06:55:34;17.05;;;7.80;;
70247;SDS011;57641;51.416;5.506;2022-11-11T06:58:07;18.90;;;6.97;;
70247;SDS011;57641;51.416;5.506;2022-11-11T07:00:34;19.77;;;7.32;;
70247;SDS011;57641;51.416;5.506;2022-11-11T07:03:01;17.70;;;7.13;;
70247;SDS011;57641;51.416;5.506;2022-11-11T07:05:27;16.02;;;7.03;;
70247;SDS011;57641;51.416;5.506;2022-11-11T07:07:53;15.43;;;6.97;;
70247;SDS011;57641;51.416;5.506;2022-11-11T07:10:19;15.23;;;7.28;;
70247;SDS011;57641;51.416;5.506;2022-11-11T07:12:45;15.48;;;6.63;;
70247;SDS011;57641;51.416;5.506;2022-11-11T07:15:11;14.40;;;6.78;;
70247;SDS011;57641;51.416;5.506;2022-11-11T07:17:37;16.05;;;6.53;;
70247;SDS011;57641;51.416;5.506;2022-11-11T07:20:03;14.50;;;5.90;;
70247;SDS011;57641;51.416;5.506;2022-11-11T07:22:30;13.32;;;5.65;;
70247;SDS011;57641;51.416;5.506;2022-11-11T07:24:56;13.80;;;5.72;;
70247;SDS011;57641;51.416;5.506;2022-11-11T07:27:22;15.82;;;5.75;;
70247;SDS011;57641;51.416;5.506;2022-11-11T07:29:48;15.70;;;6.30;;
70247;SDS011;57641;51.416;5.506;2022-11-11T07:32:14;11.05;;;5.35;;
70247;SDS011;57641;51.416;5.506;2022-11-11T07:34:43;8.73;;;5.05;;
70247;SDS011;57641;51.416;5.506;2022-11-11T07:37:09;11.82;;;5.25;;
70247;SDS011;57641;51.416;5.506;2022-11-11T07:39:35;10.10;;;4.53;;
70247;SDS011;57641;51.416;5.506;2022-11-11T07:42:01;9.73;;;4.53;;
70247;SDS011;57641;51.416;5.506;2022-11-11T07:44:27;10.77;;;4.85;;
70247;SDS011;57641;51.416;5.506;2022-11-11T07:46:53;9.50;;;4.47;;
70247;SDS011;57641;51.416;5.506;2022-11-11T07:49:19;8.55;;;4.10;;
70247;SDS011;57641;51.416;5.506;2022-11-11T07:51:45;9.77;;;5.05;;
70247;SDS011;57641;51.416;5.506;2022-11-11T07:54:11;9.23;;;4.20;;
70247;SDS011;57641;51.416;5.506;2022-11-11T07:56:37;9.30;;;4.25;;
70247;SDS011;57641;51.416;5.506;2022-11-11T07:59:03;8.52;;;4.15;;
70247;SDS011;57641;51.416;5.506;2022-11-11T08:01:29;9.85;;;4.40;;
70247;SDS011;57641;51.416;5.506;2022-11-11T08:03:55;10.25;;;4.88;;
70247;SDS011;57641;51.416;5.506;2022-11-11T08:06:21;9.60;;;4.88;;
70247;SDS011;57641;51.416;5.506;2022-11-11T08:08:48;15.25;;;4.95;;
70247;SDS011;57641;51.416;5.506;2022-11-11T08:11:14;9.60;;;4.40;;
70247;SDS011;57641;51.416;5.506;2022-11-11T08:13:41;9.45;;;3.85;;
70247;SDS011;57641;51.416;5.506;2022-11-11T08:16:08;9.27;;;3.50;;
70247;SDS011;57641;51.416;5.506;2022-11-11T08:18:35;9.05;;;3.90;;
70247;SDS011;57641;51.416;5.506;2022-11-11T08:21:02;5.95;;;3.70;;
70247;SDS011;57641;51.416;5.506;2022-11-11T08:23:28;7.78;;;3.33;;
70247;SDS011;57641;51.416;5.506;2022-11-11T08:26:01;12.25;;;3.95;;
70247;SDS011;57641;51.416;5.506;2022-11-11T08:28:28;7.10;;;3.17;;
70247;SDS011;57641;51.416;5.506;2022-11-11T08:30:54;6.38;;;3.65;;
70247;SDS011;57641;51.416;5.506;2022-11-11T08:33:20;8.25;;;3.45;;
70247;SDS011;57641;51.416;5.506;2022-11-11T08:35:46;5.65;;;2.42;;
70247;SDS011;57641;51.416;5.506;2022-11-11T08:38:12;7.95;;;3.30;;
70247;SDS011;57641;51.416;5.506;2022-11-11T08:40:39;8.75;;;3.35;;
70247;SDS011;57641;51.416;5.506;2022-11-11T08:43:05;6.72;;;2.97;;
70247;SDS011;57641;51.416;5.506;2022-11-11T08:45:31;6.38;;;3.22;;
70247;SDS011;57641;51.416;5.506;2022-11-11T08:47:57;6.35;;;2.80;;
70247;SDS011;57641;51.416;5.506;2022-11-11T08:50:23;5.53;;;2.75;;
70247;SDS011;57641;51.416;5.506;2022-11-11T08:52:49;4.78;;;3.00;;
70247;SDS011;57641;51.416;5.506;2022-11-11T08:55:16;7.07;;;3.00;;
70247;SDS011;57641;51.416;5.506;2022-11-11T08:57:42;6.20;;;3.15;;
70247;SDS011;57641;51.416;5.506;2022-11-11T09:00:09;4.43;;;2.40;;
70247;SDS011;57641;51.416;5.506;2022-11-11T09:02:35;6.38;;;3.20;;
70247;SDS011;57641;51.416;5.506;2022-11-11T09:05:02;5.05;;;2.47;;
70247;SDS011;57641;51.416;5.506;2022-11-11T09:07:28;3.38;;;2.10;;
70247;SDS011;57641;51.416;5.506;2022-11-11T09:09:54;4.55;;;2.20;;
70247;SDS011;57641;51.416;5.506;2022-11-11T09:12:20;5.20;;;2.30;;
70247;SDS011;57641;51.416;5.506;2022-11-11T09:14:46;7.28;;;2.60;;
70247;SDS011;57641;51.416;5.506;2022-11-11T09:17:13;4.75;;;2.05;;
70247;SDS011;57641;51.416;5.506;2022-11-11T09:19:39;2.95;;;2.03;;
70247;SDS011;57641;51.416;5.506;2022-11-11T09:22:05;4.38;;;2.05;;
70247;SDS011;57641;51.416;5.506;2022-11-11T09:24:32;3.88;;;2.20;;
70247;SDS011;57641;51.416;5.506;2022-11-11T09:26:58;8.48;;;2.58;;
70247;SDS011;57641;51.416;5.506;2022-11-11T09:29:24;3.30;;;1.85;;
70247;SDS011;57641;51.416;5.506;2022-11-11T09:31:50;6.05;;;2.40;;
70247;SDS011;57641;51.416;5.506;2022-11-11T09:34:16;4.95;;;2.13;;
70247;SDS011;57641;51.416;5.506;2022-11-11T09:36:42;5.85;;;2.35;;
70247;SDS011;57641;51.416;5.506;2022-11-11T09:39:08;3.92;;;1.98;;
70247;SDS011;57641;51.416;5.506;2022-11-11T09:41:50;4.55;;;2.20;;
70247;SDS011;57641;51.416;5.506;2022-11-11T09:47:10;4.10;;;2.45;;
70247;SDS011;57641;51.416;5.506;2022-11-11T09:50:22;3.22;;;2.00;;
70247;SDS011;57641;51.416;5.506;2022-11-11T09:58:00;10.88;;;2.28;;
70247;SDS011;57641;51.416;5.506;2022-11-11T10:00:29;4.05;;;2.20;;
70247;SDS011;57641;51.416;5.506;2022-11-11T10:02:58;7.35;;;2.40;;
70247;SDS011;57641;51.416;5.506;2022-11-11T10:05:26;4.38;;;2.20;;
70247;SDS011;57641;51.416;5.506;2022-11-11T10:08:00;3.45;;;1.80;;
70247;SDS011;57641;51.416;5.506;2022-11-11T10:10:41;3.92;;;1.90;;
70247;SDS011;57641;51.416;5.506;2022-11-11T10:13:11;4.53;;;1.92;;
70247;SDS011;57641;51.416;5.506;2022-11-11T10:15:40;5.65;;;1.77;;
70247;SDS011;57641;51.416;5.506;2022-11-11T10:20:39;4.13;;;1.88;;
70247;SDS011;57641;51.416;5.506;2022-11-11T10:23:12;5.18;;;2.15;;
70247;SDS011;57641;51.416;5.506;2022-11-11T10:25:41;3.90;;;1.92;;
70247;SDS011;57641;51.416;5.506;2022-11-11T10:28:14;4.40;;;1.90;;
70247;SDS011;57641;51.416;5.506;2022-11-11T10:30:41;3.67;;;2.40;;
70247;SDS011;57641;51.416;5.506;2022-11-11T10:33:13;3.85;;;1.85;;
70247;SDS011;57641;51.416;5.506;2022-11-11T10:35:41;3.38;;;2.10;;
70247;SDS011;57641;51.416;5.506;2022-11-11T10:40:52;4.68;;;1.83;;
70247;SDS011;57641;51.416;5.506;2022-11-11T10:43:20;4.80;;;1.73;;
70247;SDS011;57641;51.416;5.506;2022-11-11T10:45:53;3.67;;;1.75;;
70247;SDS011;57641;51.416;5.506;2022-11-11T10:48:24;5.68;;;2.00;;
70247;SDS011;57641;51.416;5.506;2022-11-11T10:50:53;4.70;;;2.00;;
70247;SDS011;57641;51.416;5.506;2022-11-11T10:53:24;3.58;;;1.85;;
70247;SDS011;57641;51.416;5.506;2022-11-11T10:58:20;2.72;;;1.80;;
70247;SDS011;57641;51.416;5.506;2022-11-11T11:00:48;4.57;;;1.80;;
70247;SDS011;57641;51.416;5.506;2022-11-11T11:08:21;3.33;;;2.25;;
70247;SDS011;57641;51.416;5.506;2022-11-11T11:10:51;3.47;;;1.52;;
70247;SDS011;57641;51.416;5.506;2022-11-11T11:13:26;2.22;;;1.40;;
70247;SDS011;57641;51.416;5.506;2022-11-11T11:15:56;2.28;;;1.60;;
70247;SDS011;57641;51.416;5.506;2022-11-11T11:18:23;2.15;;;1.60;;
70247;SDS011;57641;51.416;5.506;2022-11-11T11:20:55;2.58;;;1.88;;
70247;SDS011;57641;51.416;5.506;2022-11-11T11:26:20;2.38;;;1.58;;
70247;SDS011;57641;51.416;5.506;2022-11-11T11:28:56;7.00;;;2.20;;
70247;SDS011;57641;51.416;5.506;2022-11-11T11:31:30;4.03;;;1.75;;
70247;SDS011;57641;51.416;5.506;2022-11-11T11:34:00;3.92;;;1.80;;
70247;SDS011;57641;51.416;5.506;2022-11-11T11:36:26;4.32;;;2.17;;
70247;SDS011;57641;51.416;5.506;2022-11-11T11:38:52;2.58;;;1.42;;
70247;SDS011;57641;51.416;5.506;2022-11-11T11:41:40;2.92;;;1.35;;
70247;SDS011;57641;51.416;5.506;2022-11-11T11:44:23;3.03;;;1.70;;
70247;SDS011;57641;51.416;5.506;2022-11-11T11:46:49;4.32;;;1.90;;
70247;SDS011;57641;51.416;5.506;2022-11-11T11:54:52;1.90;;;1.27;;
70247;SDS011;57641;51.416;5.506;2022-11-11T11:57:32;2.53;;;1.77;;
70247;SDS011;57641;51.416;5.506;2022-11-11T12:00:02;3.13;;;1.55;;
70247;SDS011;57641;51.416;5.506;2022-11-11T12:05:09;3.42;;;1.55;;
70247;SDS011;57641;51.416;5.506;2022-11-11T12:10:19;3.07;;;1.70;;
70247;SDS011;57641;51.416;5.506;2022-11-11T12:12:55;1.93;;;1.50;;
70247;SDS011;57641;51.416;5.506;2022-11-11T12:15:30;3.17;;;1.10;;
70247;SDS011;57641;51.416;5.506;2022-11-11T12:20:26;2.50;;;1.15;;
70247;SDS011;57641;51.416;5.506;2022-11-11T12:30:55;2.25;;;1.30;;
70247;SDS011;57641;51.416;5.506;2022-11-11T12:35:57;3.25;;;1.30;;
70247;SDS011;57641;51.416;5.506;2022-11-11T12:41:28;2.00;;;1.00;;
70247;SDS011;57641;51.416;5.506;2022-11-11T12:49:15;2.28;;;1.17;;
70247;SDS011;57641;51.416;5.506;2022-11-11T13:02:02;1.95;;;1.05;;
70247;SDS011;57641;51.416;5.506;2022-11-11T13:04:52;3.42;;;1.45;;
70247;SDS011;57641;51.416;5.506;2022-11-11T13:07:42;4.50;;;1.40;;
70247;SDS011;57641;51.416;5.506;2022-11-11T13:15:13;1.85;;;1.02;;
70247;SDS011;57641;51.416;5.506;2022-11-11T13:17:40;2.67;;;1.17;;
70247;SDS011;57641;51.416;5.506;2022-11-11T13:22:32;2.75;;;0.90;;
70247;SDS011;57641;51.416;5.506;2022-11-11T13:25:01;2.10;;;1.20;;
70247;SDS011;57641;51.416;5.506;2022-11-11T13:27:44;2.30;;;1.00;;
70247;SDS011;57641;51.416;5.506;2022-11-11T13:37:49;1.73;;;1.20;;
70247;SDS011;57641;51.416;5.506;2022-11-11T13:43:17;1.00;;;0.80;;
70247;SDS011;57641;51.416;5.506;2022-11-11T13:45:48;2.25;;;0.90;;
70247;SDS011;57641;51.416;5.506;2022-11-11T13:48:17;1.80;;;1.20;;
70247;SDS011;57641;51.416;5.506;2022-11-11T13:50:44;1.63;;;1.00;;
70247;SDS011;57641;51.416;5.506;2022-11-11T13:53:14;2.22;;;1.20;;
70247;SDS011;57641;51.416;5.506;2022-11-11T13:55:48;3.50;;;1.13;;
70247;SDS011;57641;51.416;5.506;2022-11-11T13:58:22;1.25;;;0.90;;
70247;SDS011;57641;51.416;5.506;2022-11-11T14:00:56;2.25;;;0.90;;
70247;SDS011;57641;51.416;5.506;2022-11-11T14:06:13;5.00;;;1.55;;
70247;SDS011;57641;51.416;5.506;2022-11-11T14:11:33;1.63;;;0.90;;
70247;SDS011;57641;51.416;5.506;2022-11-11T14:13:58;4.70;;;1.67;;
70247;SDS011;57641;51.416;5.506;2022-11-11T14:24:22;2.83;;;1.20;;
70247;SDS011;57641;51.416;5.506;2022-11-11T14:26:59;1.42;;;1.05;;
70247;SDS011;57641;51.416;5.506;2022-11-11T14:29:29;2.78;;;1.23;;
70247;SDS011;57641;51.416;5.506;2022-11-11T14:32:04;3.28;;;1.10;;
70247;SDS011;57641;51.416;5.506;2022-11-11T14:34:47;3.63;;;1.40;;
70247;SDS011;57641;51.416;5.506;2022-11-11T14:40:01;6.43;;;2.20;;
70247;SDS011;57641;51.416;5.506;2022-11-11T14:45:09;5.50;;;1.80;;
70247;SDS011;57641;51.416;5.506;2022-11-11T14:47:49;3.65;;;1.90;;
70247;SDS011;57641;51.416;5.506;2022-11-11T14:52:59;3.95;;;1.20;;
70247;SDS011;57641;51.416;5.506;2022-11-11T14:55:27;4.05;;;1.10;;
70247;SDS011;57641;51.416;5.506;2022-11-11T15:00:21;1.92;;;1.20;;
70247;SDS011;57641;51.416;5.506;2022-11-11T15:02:52;3.22;;;1.50;;
70247;SDS011;57641;51.416;5.506;2022-11-11T15:05:20;3.67;;;1.30;;
70247;SDS011;57641;51.416;5.506;2022-11-11T15:10:21;1.73;;;1.27;;
70247;SDS011;57641;51.416;5.506;2022-11-11T15:20:30;3.72;;;1.10;;
70247;SDS011;57641;51.416;5.506;2022-11-11T15:36:35;2.75;;;1.05;;
70247;SDS011;57641;51.416;5.506;2022-11-11T15:39:06;1.65;;;1.00;;
70247;SDS011;57641;51.416;5.506;2022-11-11T15:41:36;1.40;;;1.25;;
70247;SDS011;57641;51.416;5.506;2022-11-11T15:44:06;3.00;;;1.00;;
70247;SDS011;57641;51.416;5.506;2022-11-11T15:46:35;2.22;;;1.20;;
70247;SDS011;57641;51.416;5.506;2022-11-11T15:49:03;2.60;;;1.38;;
70247;SDS011;57641;51.416;5.506;2022-11-11T15:51:30;2.10;;;1.10;;
70247;SDS011;57641;51.416;5.506;2022-11-11T15:54:15;2.92;;;1.20;;
70247;SDS011;57641;51.416;5.506;2022-11-11T15:56:43;2.65;;;1.45;;
70247;SDS011;57641;51.416;5.506;2022-11-11T15:59:22;2.00;;;1.35;;
70247;SDS011;57641;51.416;5.506;2022-11-11T16:01:48;3.55;;;1.42;;
70247;SDS011;57641;51.416;5.506;2022-11-11T16:04:16;4.15;;;1.63;;
70247;SDS011;57641;51.416;5.506;2022-11-11T16:06:43;3.17;;;1.10;;
70247;SDS011;57641;51.416;5.506;2022-11-11T16:09:09;2.40;;;1.15;;
70247;SDS011;57641;51.416;5.506;2022-11-11T16:11:38;3.88;;;1.15;;
70247;SDS011;57641;51.416;5.506;2022-11-11T16:14:04;3.65;;;1.30;;
70247;SDS011;57641;51.416;5.506;2022-11-11T16:16:31;3.80;;;1.40;;
70247;SDS011;57641;51.416;5.506;2022-11-11T16:19:01;3.28;;;1.70;;
70247;SDS011;57641;51.416;5.506;2022-11-11T16:22:30;2.50;;;1.65;;
70247;SDS011;57641;51.416;5.506;2022-11-11T16:24:25;2.88;;;1.42;;
70247;SDS011;57641;51.416;5.506;2022-11-11T16:26:52;2.47;;;1.17;;
70247;SDS011;57641;51.416;5.506;2022-11-11T16:29:18;2.67;;;1.38;;
70247;SDS011;57641;51.416;5.506;2022-11-11T16:31:44;2.05;;;1.30;;
70247;SDS011;57641;51.416;5.506;2022-11-11T16:36:59;2.70;;;1.33;;
70247;SDS011;57641;51.416;5.506;2022-11-11T16:39:26;1.75;;;1.30;;
70247;SDS011;57641;51.416;5.506;2022-11-11T16:41:52;1.83;;;1.40;;
70247;SDS011;57641;51.416;5.506;2022-11-11T16:46:54;2.42;;;1.50;;
70247;SDS011;57641;51.416;5.506;2022-11-11T16:51:49;2.67;;;1.30;;
70247;SDS011;57641;51.416;5.506;2022-11-11T16:54:16;2.15;;;1.40;;
70247;SDS011;57641;51.416;5.506;2022-11-11T16:56:45;5.85;;;1.70;;
70247;SDS011;57641;51.416;5.506;2022-11-11T16:59:17;3.83;;;1.60;;
70247;SDS011;57641;51.416;5.506;2022-11-11T17:01:44;3.38;;;1.50;;
70247;SDS011;57641;51.416;5.506;2022-11-11T17:04:11;4.03;;;1.63;;
70247;SDS011;57641;51.416;5.506;2022-11-11T17:06:45;1.88;;;1.13;;
70247;SDS011;57641;51.416;5.506;2022-11-11T17:11:53;4.68;;;1.75;;
70247;SDS011;57641;51.416;5.506;2022-11-11T17:14:20;2.40;;;1.77;;
70247;SDS011;57641;51.416;5.506;2022-11-11T17:16:46;4.13;;;1.52;;
70247;SDS011;57641;51.416;5.506;2022-11-11T17:19:12;2.88;;;1.30;;
70247;SDS011;57641;51.416;5.506;2022-11-11T17:21:38;2.25;;;1.48;;
70247;SDS011;57641;51.416;5.506;2022-11-11T17:24:04;3.75;;;1.85;;
70247;SDS011;57641;51.416;5.506;2022-11-11T17:26:30;6.05;;;1.73;;
70247;SDS011;57641;51.416;5.506;2022-11-11T17:28:57;5.88;;;2.53;;
70247;SDS011;57641;51.416;5.506;2022-11-11T17:31:23;4.25;;;1.60;;